sensor_id;sensor_type;location;lat;lon;timestamp;P1;durP1;ratioP1;P2;durP2;ratioP2
7933;SDS011;4012;48.896;9.192;2022-08-03T00:01:17;3.93;;;2.80;;
7933;SDS011;4012;48.896;9.192;2022-08-03T00:03:43;5.23;;;3.47;;
7933;SDS011;4012;48.896;9.192;2022-08-03T00:06:09;6.60;;;3.40;;
7933;SDS011;4012;48.896;9.192;2022-08-03T00:08:35;4.73;;;3.20;;
7933;SDS011;4012;48.896;9.192;2022-08-03T00:11:00;5.43;;;3.17;;
7933;SDS011;4012;48.896;9.192;2022-08-03T00:13:26;4.67;;;3.17;;
7933;SDS011;4012;48.896;9.192;2022-08-03T00:15:52;4.33;;;3.30;;
7933;SDS011;4012;48.896;9.192;2022-08-03T00:18:18;4.80;;;3.83;;
7933;SDS011;4012;48.896;9.192;2022-08-03T00:20:43;3.87;;;3.20;;
7933;SDS011;4012;48.896;9.192;2022-08-03T00:23:09;5.13;;;3.10;;
7933;SDS011;4012;48.896;9.192;2022-08-03T00:25:35;4.07;;;3.17;;
7933;SDS011;4012;48.896;9.192;2022-08-03T00:28:01;4.10;;;3.13;;
7933;SDS011;4012;48.896;9.192;2022-08-03T00:30:28;4.53;;;3.27;;
7933;SDS011;4012;48.896;9.192;2022-08-03T00:32:54;4.80;;;3.20;;
7933;SDS011;4012;48.896;9.192;2022-08-03T00:35:20;5.37;;;3.47;;
7933;SDS011;4012;48.896;9.192;2022-08-03T00:37:46;5.60;;;3.20;;
7933;SDS011;4012;48.896;9.192;2022-08-03T00:40:12;3.23;;;2.93;;
7933;SDS011;4012;48.896;9.192;2022-08-03T00:42:55;4.00;;;3.33;;
7933;SDS011;4012;48.896;9.192;2022-08-03T00:45:27;3.83;;;3.03;;
7933;SDS011;4012;48.896;9.192;2022-08-03T00:48:00;4.90;;;2.90;;
7933;SDS011;4012;48.896;9.192;2022-08-03T00:50:28;5.33;;;2.87;;
7933;SDS011;4012;48.896;9.192;2022-08-03T00:52:56;3.97;;;3.07;;
7933;SDS011;4012;48.896;9.192;2022-08-03T00:55:23;5.43;;;2.73;;
7933;SDS011;4012;48.896;9.192;2022-08-03T00:57:49;3.20;;;2.83;;
7933;SDS011;4012;48.896;9.192;2022-08-03T01:00:16;4.53;;;3.33;;
7933;SDS011;4012;48.896;9.192;2022-08-03T01:02:43;4.20;;;3.20;;
7933;SDS011;4012;48.896;9.192;2022-08-03T01:05:09;4.20;;;3.00;;
7933;SDS011;4012;48.896;9.192;2022-08-03T01:12:43;3.60;;;2.73;;
7933;SDS011;4012;48.896;9.192;2022-08-03T01:15:21;4.37;;;3.13;;
7933;SDS011;4012;48.896;9.192;2022-08-03T01:18:02;5.30;;;3.20;;
7933;SDS011;4012;48.896;9.192;2022-08-03T01:20:34;3.83;;;2.67;;
7933;SDS011;4012;48.896;9.192;2022-08-03T01:23:19;3.10;;;2.80;;
7933;SDS011;4012;48.896;9.192;2022-08-03T01:26:02;3.70;;;3.10;;
7933;SDS011;4012;48.896;9.192;2022-08-03T01:31:26;6.00;;;3.33;;
7933;SDS011;4012;48.896;9.192;2022-08-03T01:34:13;6.87;;;3.40;;
7933;SDS011;4012;48.896;9.192;2022-08-03T01:36:42;4.07;;;3.17;;
7933;SDS011;4012;48.896;9.192;2022-08-03T01:39:12;3.87;;;3.40;;
7933;SDS011;4012;48.896;9.192;2022-08-03T01:41:49;3.80;;;2.90;;
7933;SDS011;4012;48.896;9.192;2022-08-03T01:44:23;7.60;;;2.93;;
7933;SDS011;4012;48.896;9.192;2022-08-03T01:46:53;7.87;;;3.57;;
7933;SDS011;4012;48.896;9.192;2022-08-03T01:49:24;5.83;;;3.40;;
7933;SDS011;4012;48.896;9.192;2022-08-03T01:51:52;4.60;;;3.37;;
7933;SDS011;4012;48.896;9.192;2022-08-03T01:54:19;6.33;;;3.77;;
7933;SDS011;4012;48.896;9.192;2022-08-03T01:56:47;4.57;;;3.57;;
7933;SDS011;4012;48.896;9.192;2022-08-03T01:59:15;5.00;;;3.60;;
7933;SDS011;4012;48.896;9.192;2022-08-03T02:01:42;3.60;;;3.30;;
7933;SDS011;4012;48.896;9.192;2022-08-03T02:04:10;4.70;;;3.20;;
7933;SDS011;4012;48.896;9.192;2022-08-03T02:06:38;7.97;;;3.63;;
7933;SDS011;4012;48.896;9.192;2022-08-03T02:09:05;6.03;;;3.47;;
7933;SDS011;4012;48.896;9.192;2022-08-03T02:11:32;5.17;;;3.63;;
7933;SDS011;4012;48.896;9.192;2022-08-03T02:14:01;6.23;;;4.10;;
7933;SDS011;4012;48.896;9.192;2022-08-03T02:16:30;3.93;;;3.60;;
7933;SDS011;4012;48.896;9.192;2022-08-03T02:18:58;6.20;;;3.60;;
7933;SDS011;4012;48.896;9.192;2022-08-03T02:21:26;5.77;;;3.43;;
7933;SDS011;4012;48.896;9.192;2022-08-03T02:23:53;4.93;;;3.70;;
7933;SDS011;4012;48.896;9.192;2022-08-03T02:26:20;4.07;;;3.70;;
7933;SDS011;4012;48.896;9.192;2022-08-03T02:28:48;4.03;;;3.53;;
7933;SDS011;4012;48.896;9.192;2022-08-03T02:31:21;4.10;;;3.33;;
7933;SDS011;4012;48.896;9.192;2022-08-03T02:33:53;7.83;;;3.60;;
7933;SDS011;4012;48.896;9.192;2022-08-03T02:36:24;3.20;;;2.87;;
7933;SDS011;4012;48.896;9.192;2022-08-03T02:38:52;4.90;;;3.47;;
7933;SDS011;4012;48.896;9.192;2022-08-03T02:41:23;9.13;;;3.70;;
7933;SDS011;4012;48.896;9.192;2022-08-03T02:43:54;5.13;;;3.60;;
7933;SDS011;4012;48.896;9.192;2022-08-03T02:46:26;3.40;;;3.10;;
7933;SDS011;4012;48.896;9.192;2022-08-03T02:48:57;4.80;;;3.27;;
7933;SDS011;4012;48.896;9.192;2022-08-03T02:51:27;5.30;;;3.80;;
7933;SDS011;4012;48.896;9.192;2022-08-03T02:53:56;4.60;;;3.63;;
7933;SDS011;4012;48.896;9.192;2022-08-03T02:56:24;5.60;;;3.70;;
7933;SDS011;4012;48.896;9.192;2022-08-03T02:58:50;5.87;;;3.60;;
7933;SDS011;4012;48.896;9.192;2022-08-03T03:01:23;5.00;;;3.50;;
7933;SDS011;4012;48.896;9.192;2022-08-03T03:03:51;7.50;;;4.03;;
7933;SDS011;4012;48.896;9.192;2022-08-03T03:06:18;4.07;;;3.67;;
7933;SDS011;4012;48.896;9.192;2022-08-03T03:08:44;4.50;;;3.90;;
7933;SDS011;4012;48.896;9.192;2022-08-03T03:11:12;7.53;;;3.53;;
7933;SDS011;4012;48.896;9.192;2022-08-03T03:13:39;5.40;;;3.60;;
7933;SDS011;4012;48.896;9.192;2022-08-03T03:16:08;5.20;;;4.17;;
7933;SDS011;4012;48.896;9.192;2022-08-03T03:18:37;3.77;;;3.43;;
7933;SDS011;4012;48.896;9.192;2022-08-03T03:21:04;7.17;;;3.70;;
7933;SDS011;4012;48.896;9.192;2022-08-03T03:23:34;4.13;;;3.50;;
7933;SDS011;4012;48.896;9.192;2022-08-03T03:26:01;5.53;;;3.80;;
7933;SDS011;4012;48.896;9.192;2022-08-03T03:28:27;4.63;;;4.23;;
7933;SDS011;4012;48.896;9.192;2022-08-03T03:30:54;3.87;;;3.50;;
7933;SDS011;4012;48.896;9.192;2022-08-03T03:33:20;4.83;;;3.80;;
7933;SDS011;4012;48.896;9.192;2022-08-03T03:35:47;4.40;;;3.57;;
7933;SDS011;4012;48.896;9.192;2022-08-03T03:38:13;7.90;;;3.67;;
7933;SDS011;4012;48.896;9.192;2022-08-03T03:40:39;4.40;;;3.70;;
7933;SDS011;4012;48.896;9.192;2022-08-03T03:43:11;4.67;;;3.77;;
7933;SDS011;4012;48.896;9.192;2022-08-03T03:45:37;7.20;;;3.77;;
7933;SDS011;4012;48.896;9.192;2022-08-03T03:48:05;4.27;;;3.87;;
7933;SDS011;4012;48.896;9.192;2022-08-03T03:50:31;5.87;;;4.10;;
7933;SDS011;4012;48.896;9.192;2022-08-03T03:52:58;4.60;;;4.20;;
7933;SDS011;4012;48.896;9.192;2022-08-03T03:55:25;4.90;;;4.40;;
7933;SDS011;4012;48.896;9.192;2022-08-03T03:57:50;5.73;;;4.27;;
7933;SDS011;4012;48.896;9.192;2022-08-03T04:00:16;6.90;;;4.67;;
7933;SDS011;4012;48.896;9.192;2022-08-03T04:02:45;6.97;;;4.40;;
7933;SDS011;4012;48.896;9.192;2022-08-03T04:05:11;6.67;;;4.20;;
7933;SDS011;4012;48.896;9.192;2022-08-03T04:08:00;6.83;;;4.83;;
7933;SDS011;4012;48.896;9.192;2022-08-03T04:10:47;6.57;;;5.23;;
7933;SDS011;4012;48.896;9.192;2022-08-03T04:13:42;4.97;;;4.27;;
7933;SDS011;4012;48.896;9.192;2022-08-03T04:16:29;6.33;;;4.70;;
7933;SDS011;4012;48.896;9.192;2022-08-03T04:19:07;6.70;;;4.70;;
7933;SDS011;4012;48.896;9.192;2022-08-03T04:21:34;6.90;;;4.67;;
7933;SDS011;4012;48.896;9.192;2022-08-03T04:24:04;5.60;;;4.40;;
7933;SDS011;4012;48.896;9.192;2022-08-03T04:26:35;6.60;;;3.97;;
7933;SDS011;4012;48.896;9.192;2022-08-03T04:29:03;5.43;;;4.17;;
7933;SDS011;4012;48.896;9.192;2022-08-03T04:31:30;4.60;;;3.70;;
7933;SDS011;4012;48.896;9.192;2022-08-03T04:33:56;7.20;;;4.20;;
7933;SDS011;4012;48.896;9.192;2022-08-03T04:36:25;6.43;;;4.03;;
7933;SDS011;4012;48.896;9.192;2022-08-03T04:41:24;4.47;;;4.07;;
7933;SDS011;4012;48.896;9.192;2022-08-03T04:43:52;6.87;;;5.07;;
7933;SDS011;4012;48.896;9.192;2022-08-03T04:46:20;6.77;;;4.73;;
7933;SDS011;4012;48.896;9.192;2022-08-03T04:48:48;6.90;;;4.90;;
7933;SDS011;4012;48.896;9.192;2022-08-03T04:51:14;5.33;;;4.60;;
7933;SDS011;4012;48.896;9.192;2022-08-03T04:53:41;7.50;;;4.80;;
7933;SDS011;4012;48.896;9.192;2022-08-03T04:56:07;9.10;;;4.97;;
7933;SDS011;4012;48.896;9.192;2022-08-03T04:58:33;7.30;;;5.27;;
7933;SDS011;4012;48.896;9.192;2022-08-03T05:00:59;5.93;;;5.00;;
7933;SDS011;4012;48.896;9.192;2022-08-03T05:03:25;5.90;;;4.23;;
7933;SDS011;4012;48.896;9.192;2022-08-03T05:05:51;5.47;;;4.23;;
7933;SDS011;4012;48.896;9.192;2022-08-03T05:08:17;5.70;;;3.83;;
7933;SDS011;4012;48.896;9.192;2022-08-03T05:10:43;7.27;;;4.70;;
7933;SDS011;4012;48.896;9.192;2022-08-03T05:13:08;5.60;;;4.77;;
7933;SDS011;4012;48.896;9.192;2022-08-03T05:15:36;6.17;;;4.33;;
7933;SDS011;4012;48.896;9.192;2022-08-03T05:18:02;5.77;;;4.33;;
7933;SDS011;4012;48.896;9.192;2022-08-03T05:20:28;5.80;;;4.43;;
7933;SDS011;4012;48.896;9.192;2022-08-03T05:22:55;5.50;;;4.23;;
7933;SDS011;4012;48.896;9.192;2022-08-03T05:25:21;4.87;;;4.20;;
7933;SDS011;4012;48.896;9.192;2022-08-03T05:27:46;5.40;;;4.60;;
7933;SDS011;4012;48.896;9.192;2022-08-03T05:30:12;5.50;;;3.77;;
7933;SDS011;4012;48.896;9.192;2022-08-03T05:32:38;5.60;;;3.97;;
7933;SDS011;4012;48.896;9.192;2022-08-03T05:35:04;5.70;;;4.20;;
7933;SDS011;4012;48.896;9.192;2022-08-03T05:37:30;5.20;;;3.63;;
7933;SDS011;4012;48.896;9.192;2022-08-03T05:39:55;5.03;;;4.07;;
7933;SDS011;4012;48.896;9.192;2022-08-03T05:42:21;5.10;;;4.43;;
7933;SDS011;4012;48.896;9.192;2022-08-03T05:44:46;3.90;;;3.60;;
7933;SDS011;4012;48.896;9.192;2022-08-03T05:47:12;5.13;;;4.17;;
7933;SDS011;4012;48.896;9.192;2022-08-03T05:49:37;4.50;;;3.77;;
7933;SDS011;4012;48.896;9.192;2022-08-03T05:52:03;4.00;;;3.70;;
7933;SDS011;4012;48.896;9.192;2022-08-03T05:54:29;6.93;;;4.00;;
7933;SDS011;4012;48.896;9.192;2022-08-03T05:56:55;7.53;;;3.83;;
7933;SDS011;4012;48.896;9.192;2022-08-03T05:59:20;9.07;;;4.20;;
7933;SDS011;4012;48.896;9.192;2022-08-03T06:01:46;4.87;;;3.80;;
7933;SDS011;4012;48.896;9.192;2022-08-03T06:04:12;4.27;;;3.80;;
7933;SDS011;4012;48.896;9.192;2022-08-03T06:06:37;4.43;;;3.57;;
7933;SDS011;4012;48.896;9.192;2022-08-03T06:09:07;6.07;;;3.87;;
7933;SDS011;4012;48.896;9.192;2022-08-03T06:11:34;5.10;;;3.73;;
7933;SDS011;4012;48.896;9.192;2022-08-03T06:14:00;4.33;;;3.87;;
7933;SDS011;4012;48.896;9.192;2022-08-03T06:16:26;7.93;;;4.10;;
7933;SDS011;4012;48.896;9.192;2022-08-03T06:18:51;7.67;;;4.00;;
7933;SDS011;4012;48.896;9.192;2022-08-03T06:21:17;3.83;;;3.50;;
7933;SDS011;4012;48.896;9.192;2022-08-03T06:23:43;4.80;;;3.47;;
7933;SDS011;4012;48.896;9.192;2022-08-03T06:26:09;4.10;;;3.70;;
7933;SDS011;4012;48.896;9.192;2022-08-03T06:28:35;3.90;;;3.40;;
7933;SDS011;4012;48.896;9.192;2022-08-03T06:31:01;7.73;;;3.80;;
7933;SDS011;4012;48.896;9.192;2022-08-03T06:33:27;4.30;;;3.30;;
7933;SDS011;4012;48.896;9.192;2022-08-03T06:35:53;4.47;;;3.17;;
7933;SDS011;4012;48.896;9.192;2022-08-03T06:38:18;6.50;;;2.87;;
7933;SDS011;4012;48.896;9.192;2022-08-03T06:40:44;7.00;;;3.47;;
7933;SDS011;4012;48.896;9.192;2022-08-03T06:43:10;5.10;;;2.50;;
7933;SDS011;4012;48.896;9.192;2022-08-03T06:45:36;5.90;;;2.63;;
7933;SDS011;4012;48.896;9.192;2022-08-03T06:48:05;3.87;;;2.43;;
7933;SDS011;4012;48.896;9.192;2022-08-03T06:50:33;4.30;;;2.33;;
7933;SDS011;4012;48.896;9.192;2022-08-03T06:53:00;4.00;;;2.20;;
7933;SDS011;4012;48.896;9.192;2022-08-03T06:55:26;4.20;;;2.50;;
7933;SDS011;4012;48.896;9.192;2022-08-03T06:57:52;2.40;;;2.20;;
7933;SDS011;4012;48.896;9.192;2022-08-03T07:00:18;6.70;;;2.42;;
7933;SDS011;4012;48.896;9.192;2022-08-03T07:02:44;2.90;;;1.90;;
7933;SDS011;4012;48.896;9.192;2022-08-03T07:05:10;2.20;;;2.05;;
7933;SDS011;4012;48.896;9.192;2022-08-03T07:07:37;4.35;;;2.20;;
7933;SDS011;4012;48.896;9.192;2022-08-03T07:10:04;2.53;;;2.13;;
7933;SDS011;4012;48.896;9.192;2022-08-03T07:12:31;4.80;;;2.20;;
7933;SDS011;4012;48.896;9.192;2022-08-03T07:14:58;4.07;;;2.35;;
7933;SDS011;4012;48.896;9.192;2022-08-03T07:17:24;4.07;;;2.30;;
7933;SDS011;4012;48.896;9.192;2022-08-03T07:19:50;3.10;;;1.98;;
7933;SDS011;4012;48.896;9.192;2022-08-03T07:22:16;3.47;;;2.05;;
7933;SDS011;4012;48.896;9.192;2022-08-03T07:24:41;3.28;;;2.10;;
7933;SDS011;4012;48.896;9.192;2022-08-03T07:27:07;5.07;;;2.28;;
7933;SDS011;4012;48.896;9.192;2022-08-03T07:29:34;3.58;;;2.17;;
7933;SDS011;4012;48.896;9.192;2022-08-03T07:32:00;2.50;;;1.92;;
7933;SDS011;4012;48.896;9.192;2022-08-03T07:34:26;2.05;;;1.85;;
7933;SDS011;4012;48.896;9.192;2022-08-03T07:36:52;3.60;;;2.03;;
7933;SDS011;4012;48.896;9.192;2022-08-03T07:39:18;3.25;;;1.80;;
7933;SDS011;4012;48.896;9.192;2022-08-03T07:41:44;11.18;;;2.38;;
7933;SDS011;4012;48.896;9.192;2022-08-03T07:44:10;6.30;;;2.22;;
7933;SDS011;4012;48.896;9.192;2022-08-03T07:46:35;7.88;;;1.75;;
7933;SDS011;4012;48.896;9.192;2022-08-03T07:49:01;4.03;;;1.83;;
7933;SDS011;4012;48.896;9.192;2022-08-03T07:51:27;4.32;;;1.73;;
7933;SDS011;4012;48.896;9.192;2022-08-03T07:53:53;2.17;;;1.52;;
7933;SDS011;4012;48.896;9.192;2022-08-03T07:56:21;4.20;;;1.80;;
7933;SDS011;4012;48.896;9.192;2022-08-03T07:58:48;3.78;;;1.70;;
7933;SDS011;4012;48.896;9.192;2022-08-03T08:01:15;4.20;;;1.83;;
7933;SDS011;4012;48.896;9.192;2022-08-03T08:03:41;1.85;;;1.55;;
7933;SDS011;4012;48.896;9.192;2022-08-03T08:06:06;5.22;;;1.73;;
7933;SDS011;4012;48.896;9.192;2022-08-03T08:08:32;2.03;;;1.83;;
7933;SDS011;4012;48.896;9.192;2022-08-03T08:10:58;1.85;;;1.60;;
7933;SDS011;4012;48.896;9.192;2022-08-03T08:13:23;2.28;;;1.63;;
7933;SDS011;4012;48.896;9.192;2022-08-03T08:15:49;2.85;;;1.40;;
7933;SDS011;4012;48.896;9.192;2022-08-03T08:18:15;2.40;;;1.63;;
7933;SDS011;4012;48.896;9.192;2022-08-03T08:20:40;4.20;;;1.40;;
7933;SDS011;4012;48.896;9.192;2022-08-03T08:23:07;1.90;;;1.50;;
7933;SDS011;4012;48.896;9.192;2022-08-03T08:25:33;2.15;;;1.30;;
7933;SDS011;4012;48.896;9.192;2022-08-03T08:27:59;1.70;;;1.35;;
7933;SDS011;4012;48.896;9.192;2022-08-03T08:30:29;1.77;;;1.17;;
7933;SDS011;4012;48.896;9.192;2022-08-03T08:32:55;3.83;;;1.50;;
7933;SDS011;4012;48.896;9.192;2022-08-03T08:35:22;3.97;;;1.70;;
7933;SDS011;4012;48.896;9.192;2022-08-03T08:37:48;2.40;;;1.30;;
7933;SDS011;4012;48.896;9.192;2022-08-03T08:40:14;1.58;;;1.48;;
7933;SDS011;4012;48.896;9.192;2022-08-03T08:42:40;2.65;;;1.25;;
7933;SDS011;4012;48.896;9.192;2022-08-03T08:45:07;2.13;;;1.25;;
7933;SDS011;4012;48.896;9.192;2022-08-03T08:47:35;1.45;;;1.35;;
7933;SDS011;4012;48.896;9.192;2022-08-03T08:50:05;3.08;;;1.20;;
7933;SDS011;4012;48.896;9.192;2022-08-03T08:52:32;2.40;;;1.15;;
7933;SDS011;4012;48.896;9.192;2022-08-03T08:55:01;4.28;;;1.50;;
7933;SDS011;4012;48.896;9.192;2022-08-03T08:57:30;1.83;;;1.40;;
7933;SDS011;4012;48.896;9.192;2022-08-03T09:00:00;1.75;;;1.52;;
7933;SDS011;4012;48.896;9.192;2022-08-03T09:02:28;1.50;;;1.33;;
7933;SDS011;4012;48.896;9.192;2022-08-03T09:04:54;1.15;;;1.10;;
7933;SDS011;4012;48.896;9.192;2022-08-03T09:07:20;2.85;;;1.08;;
7933;SDS011;4012;48.896;9.192;2022-08-03T09:09:46;2.90;;;1.23;;
7933;SDS011;4012;48.896;9.192;2022-08-03T09:12:12;2.13;;;1.20;;
7933;SDS011;4012;48.896;9.192;2022-08-03T09:14:38;1.50;;;1.30;;
7933;SDS011;4012;48.896;9.192;2022-08-03T09:17:04;3.00;;;1.33;;
7933;SDS011;4012;48.896;9.192;2022-08-03T09:19:31;2.30;;;1.30;;
7933;SDS011;4012;48.896;9.192;2022-08-03T09:22:14;4.25;;;1.40;;
7933;SDS011;4012;48.896;9.192;2022-08-03T09:24:54;3.03;;;1.38;;
7933;SDS011;4012;48.896;9.192;2022-08-03T09:27:22;1.95;;;1.40;;
7933;SDS011;4012;48.896;9.192;2022-08-03T09:29:48;4.10;;;1.40;;
7933;SDS011;4012;48.896;9.192;2022-08-03T09:32:18;2.83;;;1.20;;
7933;SDS011;4012;48.896;9.192;2022-08-03T09:34:46;3.38;;;1.25;;
7933;SDS011;4012;48.896;9.192;2022-08-03T09:37:14;2.67;;;1.23;;
7933;SDS011;4012;48.896;9.192;2022-08-03T09:39:42;2.75;;;1.30;;
7933;SDS011;4012;48.896;9.192;2022-08-03T09:42:16;3.65;;;1.40;;
7933;SDS011;4012;48.896;9.192;2022-08-03T09:44:44;5.10;;;1.48;;
7933;SDS011;4012;48.896;9.192;2022-08-03T09:47:12;5.22;;;1.48;;
7933;SDS011;4012;48.896;9.192;2022-08-03T09:49:40;2.38;;;1.13;;
7933;SDS011;4012;48.896;9.192;2022-08-03T09:52:11;1.23;;;1.13;;
7933;SDS011;4012;48.896;9.192;2022-08-03T09:54:37;1.20;;;1.10;;
7933;SDS011;4012;48.896;9.192;2022-08-03T09:57:03;3.60;;;1.33;;
7933;SDS011;4012;48.896;9.192;2022-08-03T09:59:29;2.88;;;1.30;;
7933;SDS011;4012;48.896;9.192;2022-08-03T10:01:57;1.92;;;1.25;;
7933;SDS011;4012;48.896;9.192;2022-08-03T10:04:24;4.30;;;1.40;;
7933;SDS011;4012;48.896;9.192;2022-08-03T10:07:03;1.40;;;1.30;;
7933;SDS011;4012;48.896;9.192;2022-08-03T10:09:33;3.08;;;1.30;;
7933;SDS011;4012;48.896;9.192;2022-08-03T10:12:10;1.45;;;1.30;;
7933;SDS011;4012;48.896;9.192;2022-08-03T10:14:37;1.40;;;1.20;;
7933;SDS011;4012;48.896;9.192;2022-08-03T10:17:04;1.60;;;1.50;;
7933;SDS011;4012;48.896;9.192;2022-08-03T10:19:30;2.95;;;1.30;;
7933;SDS011;4012;48.896;9.192;2022-08-03T10:22:03;1.40;;;1.30;;
7933;SDS011;4012;48.896;9.192;2022-08-03T10:24:34;1.90;;;1.27;;
7933;SDS011;4012;48.896;9.192;2022-08-03T10:27:05;3.15;;;1.40;;
7933;SDS011;4012;48.896;9.192;2022-08-03T10:29:38;1.65;;;1.33;;
7933;SDS011;4012;48.896;9.192;2022-08-03T10:32:09;1.38;;;1.27;;
7933;SDS011;4012;48.896;9.192;2022-08-03T10:34:43;1.45;;;1.20;;
7933;SDS011;4012;48.896;9.192;2022-08-03T10:37:10;3.08;;;1.38;;
7933;SDS011;4012;48.896;9.192;2022-08-03T10:39:38;4.88;;;1.40;;
7933;SDS011;4012;48.896;9.192;2022-08-03T10:42:17;1.58;;;1.25;;
7933;SDS011;4012;48.896;9.192;2022-08-03T10:44:47;2.88;;;1.40;;
7933;SDS011;4012;48.896;9.192;2022-08-03T10:47:16;2.53;;;1.40;;
7933;SDS011;4012;48.896;9.192;2022-08-03T10:49:42;3.35;;;1.60;;
7933;SDS011;4012;48.896;9.192;2022-08-03T10:52:10;3.17;;;1.40;;
7933;SDS011;4012;48.896;9.192;2022-08-03T10:54:37;3.15;;;1.90;;
7933;SDS011;4012;48.896;9.192;2022-08-03T11:00:09;2.42;;;1.50;;
7933;SDS011;4012;48.896;9.192;2022-08-03T11:08:16;1.95;;;1.50;;
7933;SDS011;4012;48.896;9.192;2022-08-03T11:16:39;3.67;;;1.50;;
7933;SDS011;4012;48.896;9.192;2022-08-03T11:19:07;2.60;;;1.33;;
7933;SDS011;4012;48.896;9.192;2022-08-03T11:35:19;3.10;;;1.40;;
7933;SDS011;4012;48.896;9.192;2022-08-03T11:45:57;2.13;;;1.30;;
7933;SDS011;4012;48.896;9.192;2022-08-03T11:48:41;2.20;;;1.60;;
7933;SDS011;4012;48.896;9.192;2022-08-03T11:51:24;3.83;;;1.50;;
7933;SDS011;4012;48.896;9.192;2022-08-03T11:53:53;1.63;;;1.53;;
7933;SDS011;4012;48.896;9.192;2022-08-03T11:56:23;4.70;;;1.70;;
7933;SDS011;4012;48.896;9.192;2022-08-03T11:58:50;2.07;;;1.37;;
7933;SDS011;4012;48.896;9.192;2022-08-03T12:01:19;3.10;;;1.83;;
7933;SDS011;4012;48.896;9.192;2022-08-03T12:03:46;4.23;;;3.87;;
7933;SDS011;4012;48.896;9.192;2022-08-03T12:06:13;2.17;;;1.47;;
7933;SDS011;4012;48.896;9.192;2022-08-03T12:08:40;2.30;;;1.40;;
7933;SDS011;4012;48.896;9.192;2022-08-03T12:11:07;2.33;;;1.40;;
7933;SDS011;4012;48.896;9.192;2022-08-03T12:16:06;1.33;;;1.23;;
7933;SDS011;4012;48.896;9.192;2022-08-03T12:18:32;1.60;;;1.50;;
7933;SDS011;4012;48.896;9.192;2022-08-03T12:21:05;1.50;;;1.40;;
7933;SDS011;4012;48.896;9.192;2022-08-03T12:23:32;1.87;;;1.30;;
7933;SDS011;4012;48.896;9.192;2022-08-03T12:26:03;1.60;;;1.50;;
7933;SDS011;4012;48.896;9.192;2022-08-03T12:28:30;2.40;;;1.50;;
7933;SDS011;4012;48.896;9.192;2022-08-03T12:30:59;3.03;;;1.80;;
7933;SDS011;4012;48.896;9.192;2022-08-03T12:36:21;1.67;;;1.53;;
7933;SDS011;4012;48.896;9.192;2022-08-03T12:38:53;2.03;;;1.43;;
7933;SDS011;4012;48.896;9.192;2022-08-03T12:41:26;3.23;;;1.40;;
7933;SDS011;4012;48.896;9.192;2022-08-03T12:43:53;1.40;;;1.30;;
7933;SDS011;4012;48.896;9.192;2022-08-03T12:46:19;1.57;;;1.23;;
7933;SDS011;4012;48.896;9.192;2022-08-03T12:48:57;1.93;;;1.30;;
7933;SDS011;4012;48.896;9.192;2022-08-03T12:51:24;2.80;;;1.93;;
7933;SDS011;4012;48.896;9.192;2022-08-03T12:53:55;2.97;;;1.50;;
7933;SDS011;4012;48.896;9.192;2022-08-03T12:56:22;1.43;;;1.10;;
7933;SDS011;4012;48.896;9.192;2022-08-03T12:58:48;1.40;;;1.30;;
7933;SDS011;4012;48.896;9.192;2022-08-03T13:01:14;7.33;;;1.57;;
7933;SDS011;4012;48.896;9.192;2022-08-03T13:06:11;2.30;;;1.60;;
7933;SDS011;4012;48.896;9.192;2022-08-03T13:08:41;1.57;;;1.47;;
7933;SDS011;4012;48.896;9.192;2022-08-03T13:11:20;3.87;;;1.30;;
7933;SDS011;4012;48.896;9.192;2022-08-03T13:13:46;2.00;;;1.53;;
7933;SDS011;4012;48.896;9.192;2022-08-03T13:16:11;2.03;;;1.50;;
7933;SDS011;4012;48.896;9.192;2022-08-03T13:18:37;1.37;;;1.27;;
7933;SDS011;4012;48.896;9.192;2022-08-03T13:21:03;1.53;;;1.40;;
7933;SDS011;4012;48.896;9.192;2022-08-03T13:23:29;2.57;;;1.70;;
7933;SDS011;4012;48.896;9.192;2022-08-03T13:25:54;1.70;;;1.60;;
7933;SDS011;4012;48.896;9.192;2022-08-03T13:28:20;1.80;;;1.47;;
7933;SDS011;4012;48.896;9.192;2022-08-03T13:30:46;2.27;;;1.43;;
7933;SDS011;4012;48.896;9.192;2022-08-03T13:33:11;1.83;;;1.42;;
7933;SDS011;4012;48.896;9.192;2022-08-03T13:35:37;3.90;;;1.50;;
7933;SDS011;4012;48.896;9.192;2022-08-03T13:38:03;1.83;;;1.73;;
7933;SDS011;4012;48.896;9.192;2022-08-03T13:40:28;4.65;;;1.45;;
7933;SDS011;4012;48.896;9.192;2022-08-03T13:42:55;3.23;;;1.37;;
7933;SDS011;4012;48.896;9.192;2022-08-03T13:45:21;5.27;;;1.50;;
7933;SDS011;4012;48.896;9.192;2022-08-03T13:47:48;5.23;;;1.40;;
7933;SDS011;4012;48.896;9.192;2022-08-03T13:50:14;2.03;;;1.70;;
7933;SDS011;4012;48.896;9.192;2022-08-03T13:52:39;2.93;;;1.57;;
7933;SDS011;4012;48.896;9.192;2022-08-03T13:55:05;1.60;;;1.47;;
7933;SDS011;4012;48.896;9.192;2022-08-03T13:57:32;1.50;;;1.40;;
7933;SDS011;4012;48.896;9.192;2022-08-03T13:59:57;2.87;;;1.70;;
7933;SDS011;4012;48.896;9.192;2022-08-03T14:02:23;4.80;;;1.47;;
7933;SDS011;4012;48.896;9.192;2022-08-03T14:04:49;2.60;;;1.40;;
7933;SDS011;4012;48.896;9.192;2022-08-03T14:07:14;1.60;;;1.50;;
7933;SDS011;4012;48.896;9.192;2022-08-03T14:09:40;1.30;;;1.20;;
7933;SDS011;4012;48.896;9.192;2022-08-03T14:12:06;3.77;;;1.70;;
7933;SDS011;4012;48.896;9.192;2022-08-03T14:14:32;2.33;;;1.57;;
7933;SDS011;4012;48.896;9.192;2022-08-03T14:16:57;2.70;;;1.63;;
7933;SDS011;4012;48.896;9.192;2022-08-03T14:19:23;2.77;;;1.57;;
7933;SDS011;4012;48.896;9.192;2022-08-03T14:21:48;4.67;;;1.70;;
7933;SDS011;4012;48.896;9.192;2022-08-03T14:24:14;2.57;;;1.50;;
7933;SDS011;4012;48.896;9.192;2022-08-03T14:26:39;3.57;;;1.43;;
7933;SDS011;4012;48.896;9.192;2022-08-03T14:29:05;1.60;;;1.50;;
7933;SDS011;4012;48.896;9.192;2022-08-03T14:31:31;3.83;;;1.50;;
7933;SDS011;4012;48.896;9.192;2022-08-03T14:33:56;1.50;;;1.40;;
7933;SDS011;4012;48.896;9.192;2022-08-03T14:36:22;2.67;;;1.20;;
7933;SDS011;4012;48.896;9.192;2022-08-03T14:38:48;1.47;;;1.37;;
7933;SDS011;4012;48.896;9.192;2022-08-03T14:41:14;3.53;;;1.67;;
7933;SDS011;4012;48.896;9.192;2022-08-03T14:43:40;2.33;;;1.50;;
7933;SDS011;4012;48.896;9.192;2022-08-03T14:46:06;3.07;;;1.30;;
7933;SDS011;4012;48.896;9.192;2022-08-03T14:48:31;1.83;;;1.60;;
7933;SDS011;4012;48.896;9.192;2022-08-03T14:50:57;3.43;;;1.40;;
7933;SDS011;4012;48.896;9.192;2022-08-03T14:53:23;3.83;;;1.90;;
7933;SDS011;4012;48.896;9.192;2022-08-03T14:55:48;2.10;;;1.50;;
7933;SDS011;4012;48.896;9.192;2022-08-03T14:58:15;4.67;;;1.30;;
7933;SDS011;4012;48.896;9.192;2022-08-03T15:00:41;1.47;;;1.37;;
7933;SDS011;4012;48.896;9.192;2022-08-03T15:03:06;2.47;;;1.47;;
7933;SDS011;4012;48.896;9.192;2022-08-03T15:05:32;1.67;;;1.47;;
7933;SDS011;4012;48.896;9.192;2022-08-03T15:07:57;3.37;;;2.67;;
7933;SDS011;4012;48.896;9.192;2022-08-03T15:10:23;2.40;;;1.43;;
7933;SDS011;4012;48.896;9.192;2022-08-03T15:12:49;1.67;;;1.33;;
7933;SDS011;4012;48.896;9.192;2022-08-03T15:15:15;1.50;;;1.37;;
7933;SDS011;4012;48.896;9.192;2022-08-03T15:17:40;3.57;;;1.20;;
7933;SDS011;4012;48.896;9.192;2022-08-03T15:20:06;3.53;;;1.70;;
7933;SDS011;4012;48.896;9.192;2022-08-03T15:22:37;1.50;;;1.40;;
7933;SDS011;4012;48.896;9.192;2022-08-03T15:25:04;2.27;;;1.53;;
7933;SDS011;4012;48.896;9.192;2022-08-03T15:27:30;2.97;;;1.37;;
7933;SDS011;4012;48.896;9.192;2022-08-03T15:29:56;3.97;;;1.50;;
7933;SDS011;4012;48.896;9.192;2022-08-03T15:32:21;4.10;;;1.40;;
7933;SDS011;4012;48.896;9.192;2022-08-03T15:34:47;1.60;;;1.50;;
7933;SDS011;4012;48.896;9.192;2022-08-03T15:37:13;1.53;;;1.20;;
7933;SDS011;4012;48.896;9.192;2022-08-03T15:39:38;2.83;;;1.40;;
7933;SDS011;4012;48.896;9.192;2022-08-03T15:42:04;1.30;;;1.20;;
7933;SDS011;4012;48.896;9.192;2022-08-03T15:44:30;2.80;;;1.37;;
7933;SDS011;4012;48.896;9.192;2022-08-03T15:46:55;1.63;;;1.30;;
7933;SDS011;4012;48.896;9.192;2022-08-03T15:49:21;1.87;;;1.60;;
7933;SDS011;4012;48.896;9.192;2022-08-03T15:51:46;2.30;;;1.50;;
7933;SDS011;4012;48.896;9.192;2022-08-03T15:54:12;4.10;;;1.40;;
7933;SDS011;4012;48.896;9.192;2022-08-03T15:56:38;1.30;;;1.20;;
7933;SDS011;4012;48.896;9.192;2022-08-03T15:59:05;2.70;;;1.13;;
7933;SDS011;4012;48.896;9.192;2022-08-03T16:01:31;1.43;;;1.33;;
7933;SDS011;4012;48.896;9.192;2022-08-03T16:03:57;1.67;;;1.50;;
7933;SDS011;4012;48.896;9.192;2022-08-03T16:06:22;2.20;;;1.73;;
7933;SDS011;4012;48.896;9.192;2022-08-03T16:08:48;1.63;;;1.50;;
7933;SDS011;4012;48.896;9.192;2022-08-03T16:11:14;5.57;;;2.00;;
7933;SDS011;4012;48.896;9.192;2022-08-03T16:13:40;1.60;;;1.50;;